createdAt,value
2023-05-12T00:01:11.333Z,100193.84
2023-05-12T00:03:41.457Z,100186.72
2023-05-12T00:06:12.654Z,100188.41
2023-05-12T00:08:45.224Z,100192.75
2023-05-12T00:11:15.212Z,100187.63
2023-05-12T00:13:45.373Z,100193.78
2023-05-12T00:16:17.565Z,100179.19
2023-05-12T00:18:47.900Z,100185.75
2023-05-12T00:21:17.961Z,100181.59
2023-05-12T00:23:50.682Z,100182.78
2023-05-12T00:26:21.187Z,100175.38
2023-05-12T00:28:51.328Z,100175.13
2023-05-12T00:31:21.555Z,100181.16
2023-05-12T00:33:51.551Z,100176.97
2023-05-12T00:36:21.508Z,100165.09
2023-05-12T00:38:54.540Z,100175.00
2023-05-12T00:41:24.628Z,100172.06
2023-05-12T00:43:54.785Z,100170.06
2023-05-12T00:46:25.022Z,100165.56
2023-05-12T00:48:55.690Z,100169.34
2023-05-12T00:51:27.338Z,100171.94
2023-05-12T00:54:01.258Z,100169.34
2023-05-12T00:56:35.431Z,100166.88
2023-05-12T00:59:06.181Z,100165.44
2023-05-12T01:01:38.055Z,100162.22
2023-05-12T01:04:08.914Z,100161.38
2023-05-12T01:06:46.433Z,100160.25
2023-05-12T01:09:20.237Z,100156.81
2023-05-12T01:11:50.401Z,100155.06
2023-05-12T01:14:21.850Z,100159.72
2023-05-12T01:16:55.733Z,100158.09
2023-05-12T01:19:41.433Z,100160.53
2023-05-12T01:22:14.844Z,100157.47
2023-05-12T01:24:51.100Z,100160.91
2023-05-12T01:27:26.398Z,100159.53
2023-05-12T01:30:01.083Z,100161.56
2023-05-12T01:32:34.063Z,100156.22
2023-05-12T01:35:04.040Z,100161.03
2023-05-12T01:37:36.051Z,100161.25
2023-05-12T01:40:09.029Z,100157.38
2023-05-12T01:42:42.994Z,100157.59
2023-05-12T01:45:14.743Z,100163.28
2023-05-12T01:47:44.914Z,100162.09
2023-05-12T01:50:15.148Z,100168.41
2023-05-12T01:52:46.401Z,100164.03
2023-05-12T01:55:18.633Z,100161.25
2023-05-12T01:57:56.436Z,100165.06
2023-05-12T02:00:27.369Z,100169.03
2023-05-12T02:02:59.851Z,100162.78
2023-05-12T02:05:29.962Z,100170.22
2023-05-12T02:08:00.162Z,100162.53
2023-05-12T02:10:30.642Z,100162.34
2023-05-12T02:13:03.236Z,100163.00
2023-05-12T02:15:34.955Z,100161.22
2023-05-12T02:18:05.136Z,100167.00
2023-05-12T02:20:35.517Z,100160.00
2023-05-12T02:23:05.924Z,100157.59
2023-05-12T02:25:36.799Z,100161.69
2023-05-12T02:28:11.093Z,100161.75
2023-05-12T02:30:48.792Z,100166.34
2023-05-12T02:33:19.268Z,100156.81
2023-05-12T02:35:49.776Z,100162.59
2023-05-12T02:38:19.924Z,100161.75
2023-05-12T02:40:50.276Z,100157.59
2023-05-12T02:43:23.040Z,100161.94
2023-05-12T02:45:53.201Z,100152.53
2023-05-12T02:48:23.775Z,100159.88
2023-05-12T02:50:53.966Z,100155.59
2023-05-12T02:53:23.942Z,100151.25
2023-05-12T02:55:53.944Z,100146.34
2023-05-12T02:58:26.636Z,100149.31
2023-05-12T03:01:06.663Z,100152.91
2023-05-12T03:03:39.743Z,100144.59
2023-05-12T03:06:10.428Z,100152.97
2023-05-12T03:08:40.524Z,100148.59
2023-05-12T03:11:10.733Z,100162.78
2023-05-12T03:13:43.259Z,100160.00
2023-05-12T03:16:13.210Z,100157.19
2023-05-12T03:18:43.741Z,100158.78
2023-05-12T03:21:14.466Z,100165.06
2023-05-12T03:23:44.761Z,100162.41
2023-05-12T03:26:14.715Z,100158.03
2023-05-12T03:28:47.332Z,100167.50
2023-05-12T03:31:17.270Z,100163.09
2023-05-12T03:33:47.379Z,100170.84
2023-05-12T03:36:17.402Z,100155.16
2023-05-12T03:38:47.383Z,100166.34
2023-05-12T03:41:17.315Z,100155.16
2023-05-12T03:43:50.086Z,100150.66
2023-05-12T03:46:20.068Z,100156.00
2023-05-12T03:48:50.096Z,100150.66
2023-05-12T03:51:20.089Z,100157.47
2023-05-12T03:53:50.122Z,100154.75
2023-05-12T03:56:20.298Z,100153.28
2023-05-12T03:58:53.451Z,100154.13
2023-05-12T04:01:23.738Z,100147.28
2023-05-12T04:03:53.900Z,100153.38
2023-05-12T04:06:24.190Z,100151.31
2023-05-12T04:08:54.084Z,100155.31
2023-05-12T04:11:24.010Z,100161.31
2023-05-12T04:13:56.962Z,100157.09
2023-05-12T04:16:27.030Z,100160.00
2023-05-12T04:18:57.601Z,100153.28
2023-05-12T04:21:27.688Z,100162.34
2023-05-12T04:23:58.047Z,100157.00
2023-05-12T04:26:30.384Z,100154.41
2023-05-12T04:29:02.987Z,100161.09
2023-05-12T04:31:33.004Z,100162.41
2023-05-12T04:34:03.740Z,100168.72
2023-05-12T04:36:34.820Z,100156.66
2023-05-12T04:39:05.534Z,100167.00
2023-05-12T04:41:36.590Z,100171.25
2023-05-12T04:44:09.682Z,100161.25
2023-05-12T04:46:39.676Z,100162.72
2023-05-12T04:49:09.740Z,100168.78
2023-05-12T04:51:43.029Z,100175.22
2023-05-12T04:54:13.520Z,100171.22
2023-05-12T04:56:43.654Z,100172.69
2023-05-12T04:59:18.437Z,100177.34
2023-05-12T05:01:51.299Z,100181.41
2023-05-12T05:04:21.525Z,100172.75
2023-05-12T05:06:52.042Z,100177.06
2023-05-12T05:09:22.571Z,100170.25
2023-05-12T05:11:52.933Z,100181.34
2023-05-12T05:14:26.134Z,100184.50
2023-05-12T05:16:57.203Z,100186.00
2023-05-12T05:19:39.131Z,100182.84
2023-05-12T05:22:14.946Z,100186.97
2023-05-12T05:24:45.281Z,100185.28
2023-05-12T05:27:15.520Z,100186.66
2023-05-12T05:29:49.509Z,100189.56
2023-05-12T05:32:22.811Z,100189.75
2023-05-12T05:34:52.874Z,100187.19
2023-05-12T05:37:22.950Z,100184.63
2023-05-12T05:39:53.160Z,100184.28
2023-05-12T05:42:23.119Z,100194.56
2023-05-12T05:44:56.165Z,100199.75
2023-05-12T05:47:28.396Z,100199.47
2023-05-12T05:49:58.373Z,100196.81
2023-05-12T05:52:28.439Z,100195.47
2023-05-12T05:54:58.466Z,100204.84
2023-05-12T05:57:30.701Z,100199.06
2023-05-12T06:00:05.313Z,100202.56
2023-05-12T06:02:44.553Z,100209.75
2023-05-12T06:05:18.763Z,100205.44
2023-05-12T06:07:48.860Z,100206.16
2023-05-12T06:10:19.045Z,100208.56
2023-05-12T06:12:50.513Z,100210.34
2023-05-12T06:15:26.090Z,100209.84
2023-05-12T06:17:56.146Z,100213.97
2023-05-12T06:20:26.476Z,100212.78
2023-05-12T06:22:56.481Z,100220.16
2023-05-12T06:25:27.117Z,100216.81
2023-05-12T06:27:57.112Z,100214.28
2023-05-12T06:30:29.825Z,100218.81
2023-05-12T06:32:59.826Z,100223.28
2023-05-12T06:35:31.004Z,100219.53
2023-05-12T06:38:01.080Z,100223.56
2023-05-12T06:40:31.060Z,100222.09
2023-05-12T06:43:01.120Z,100221.50
2023-05-12T06:45:33.707Z,100222.69
2023-05-12T06:48:06.152Z,100224.00
2023-05-12T06:50:36.220Z,100229.75
2023-05-12T06:53:08.118Z,100226.94
2023-05-12T06:55:38.093Z,100240.91
2023-05-12T06:58:08.014Z,100223.22
2023-05-12T07:00:40.583Z,100238.59
2023-05-12T07:03:10.873Z,100233.81
2023-05-12T07:05:41.457Z,100240.72
2023-05-12T07:08:14.603Z,100237.00
2023-05-12T07:10:44.778Z,100240.41
2023-05-12T07:13:14.834Z,100232.81
2023-05-12T07:15:48.125Z,100238.69
2023-05-12T07:18:18.033Z,100234.94
2023-05-12T07:20:49.298Z,100238.09
2023-05-12T07:23:19.382Z,100229.28
2023-05-12T07:25:49.555Z,100238.53
2023-05-12T07:28:19.686Z,100233.06
2023-05-12T07:30:52.509Z,100230.16
2023-05-12T07:33:22.718Z,100231.81
2023-05-12T07:35:52.763Z,100231.38
2023-05-12T07:38:22.817Z,100232.25
2023-05-12T07:40:52.862Z,100229.34
2023-05-12T07:43:22.861Z,100225.34
2023-05-12T07:45:56.273Z,100230.78
2023-05-12T07:48:26.233Z,100227.44
2023-05-12T07:50:56.231Z,100231.63
2023-05-12T07:53:26.240Z,100229.56
2023-05-12T07:55:56.381Z,100232.69
2023-05-12T07:58:26.452Z,100230.59
2023-05-12T08:01:00.384Z,100225.34
2023-05-12T08:03:30.458Z,100232.25
2023-05-12T08:06:00.501Z,100230.78
2023-05-12T08:08:30.470Z,100231.00
2023-05-12T08:11:00.420Z,100232.28
2023-05-12T08:13:30.371Z,100226.81
2023-05-12T08:16:02.932Z,100223.47
2023-05-12T08:18:32.964Z,100227.22
2023-05-12T08:21:02.890Z,100232.28
2023-05-12T08:23:32.826Z,100227.63
2023-05-12T08:26:02.776Z,100233.13
2023-05-12T08:28:33.035Z,100232.91
2023-05-12T08:31:06.014Z,100237.28
2023-05-12T08:33:38.686Z,100235.19
2023-05-12T08:36:09.180Z,100226.19
2023-05-12T08:38:39.191Z,100233.13
2023-05-12T08:41:18.023Z,100242.72
2023-05-12T08:43:52.741Z,100245.25
2023-05-12T08:46:26.886Z,100239.59
2023-05-12T08:48:58.389Z,100241.06
2023-05-12T08:51:30.913Z,100246.72
2023-05-12T08:54:01.262Z,100247.38
2023-05-12T08:59:06.907Z,100242.53
2023-05-12T09:01:43.089Z,100243.16
2023-05-12T09:04:13.628Z,100243.13
2023-05-12T09:06:44.231Z,100244.88
2023-05-12T09:09:16.867Z,100246.53
2023-05-12T09:11:47.145Z,100245.91
2023-05-12T09:14:25.845Z,100245.25
2023-05-12T09:17:04.155Z,100244.47
2023-05-12T09:19:35.248Z,100240.66
2023-05-12T09:22:05.334Z,100235.13
2023-05-12T09:24:37.510Z,100232.53
2023-05-12T09:27:08.362Z,100230.09
2023-05-12T09:29:45.299Z,100236.41
2023-05-12T09:32:20.708Z,100237.63
2023-05-12T09:34:54.614Z,100233.53
2023-05-12T09:37:34.151Z,100231.06
2023-05-12T09:40:04.891Z,100229.78
2023-05-12T09:42:36.841Z,100235.97
2023-05-12T09:45:09.515Z,100231.78
2023-05-12T09:47:44.930Z,100241.41
2023-05-12T09:50:14.941Z,100230.50
2023-05-12T09:52:45.101Z,100241.06
2023-05-12T09:55:15.958Z,100248.41
2023-05-12T09:57:47.419Z,100246.09
2023-05-12T10:00:36.564Z,100247.13
2023-05-12T10:03:17.741Z,100251.91
2023-05-12T10:05:52.432Z,100254.06
2023-05-12T10:08:27.907Z,100257.53
2023-05-12T10:11:00.492Z,100254.19
2023-05-12T10:13:31.630Z,100254.63
2023-05-12T10:16:02.855Z,100257.34
2023-05-12T10:18:36.776Z,100257.97
2023-05-12T10:21:07.010Z,100254.34
2023-05-12T10:23:38.653Z,100256.91
2023-05-12T10:26:09.104Z,100247.72
2023-05-12T10:28:39.037Z,100254.63
2023-05-12T10:31:10.589Z,100255.66
2023-05-12T10:33:43.190Z,100255.88
2023-05-12T10:36:20.961Z,100260.50
2023-05-12T10:38:52.532Z,100254.06
2023-05-12T10:41:33.394Z,100253.44
2023-05-12T10:44:04.185Z,100244.41
2023-05-12T10:46:34.352Z,100242.75
2023-05-12T10:49:12.569Z,100243.63
2023-05-12T10:51:51.711Z,100241.84
2023-05-12T10:54:23.904Z,100238.81
2023-05-12T10:56:55.415Z,100228.41
2023-05-12T10:59:28.065Z,100235.34
2023-05-12T11:02:05.365Z,100226.50
2023-05-12T11:04:44.917Z,100231.38
2023-05-12T11:07:17.670Z,100233.88
2023-05-12T11:09:58.580Z,100234.03
2023-05-12T11:12:33.010Z,100224.63
2023-05-12T11:15:04.516Z,100234.25
2023-05-12T11:17:36.191Z,100230.28
2023-05-12T11:20:10.116Z,100233.59
2023-05-12T11:22:40.259Z,100236.03
2023-05-12T11:25:14.785Z,100243.28
2023-05-12T11:27:50.852Z,100245.84
2023-05-12T11:30:20.815Z,100238.22
2023-05-12T11:32:51.041Z,100241.38
2023-05-12T11:35:24.024Z,100244.44
2023-05-12T11:37:53.995Z,100242.69
2023-05-12T11:40:25.851Z,100242.53
2023-05-12T11:42:56.356Z,100235.44
2023-05-12T11:45:29.983Z,100243.63
2023-05-12T11:48:11.442Z,100239.50
2023-05-12T11:50:47.823Z,100240.06
2023-05-12T11:53:20.000Z,100238.28
2023-05-12T11:55:51.281Z,100241.41
2023-05-12T11:58:26.078Z,100236.31
2023-05-12T12:00:57.339Z,100237.53
2023-05-12T12:03:27.942Z,100243.16
2023-05-12T12:06:06.935Z,100244.22
2023-05-12T12:08:40.656Z,100242.97
2023-05-12T12:11:11.643Z,100243.63
2023-05-12T12:13:41.679Z,100252.00
2023-05-12T12:16:13.538Z,100239.28
2023-05-12T12:18:44.881Z,100244.84
2023-05-12T12:21:18.937Z,100240.44
2023-05-12T12:23:51.385Z,100245.28
2023-05-12T12:26:23.215Z,100249.19
2023-05-12T12:28:53.282Z,100246.81
2023-05-12T12:31:23.246Z,100251.53
2023-05-12T12:33:53.415Z,100258.69
2023-05-12T12:36:26.015Z,100249.78
2023-05-12T12:38:55.933Z,100250.59
2023-05-12T12:41:25.967Z,100247.16
2023-05-12T12:43:55.973Z,100239.78
2023-05-12T12:46:25.996Z,100235.13
2023-05-12T12:48:57.430Z,100243.97
2023-05-12T12:51:44.513Z,100246.34
2023-05-12T12:54:15.352Z,100239.34
2023-05-12T12:56:46.115Z,100235.19
2023-05-12T12:59:16.157Z,100232.78
2023-05-12T13:01:46.110Z,100238.63
2023-05-12T13:04:17.278Z,100235.66
2023-05-12T13:06:49.904Z,100250.50
2023-05-12T13:09:20.247Z,100244.06
2023-05-12T13:11:50.440Z,100249.41
2023-05-12T13:14:21.669Z,100244.13
2023-05-12T13:16:52.997Z,100245.59
2023-05-12T13:19:23.048Z,100237.00
2023-05-12T13:21:55.665Z,100239.88
2023-05-12T13:24:25.693Z,100242.75
2023-05-12T13:26:55.687Z,100243.97
2023-05-12T13:29:25.603Z,100253.78
2023-05-12T13:31:55.744Z,100244.72
2023-05-12T13:34:26.062Z,100256.22
2023-05-12T13:36:59.261Z,100262.59
2023-05-12T13:39:29.356Z,100266.22
2023-05-12T13:42:00.000Z,100272.81
2023-05-12T13:44:30.136Z,100273.06
2023-05-12T13:47:00.273Z,100272.84
2023-05-12T13:49:30.260Z,100267.97
2023-05-12T13:52:02.946Z,100264.28
2023-05-12T13:54:34.247Z,100255.63
2023-05-12T13:57:04.751Z,100253.94
2023-05-12T13:59:35.256Z,100247.59
2023-05-12T14:02:05.708Z,100248.59
2023-05-12T14:04:35.702Z,100246.59
2023-05-12T14:07:09.011Z,100248.16
2023-05-12T14:09:38.988Z,100238.97
2023-05-12T14:12:10.106Z,100239.34
2023-05-12T14:14:40.059Z,100244.31
2023-05-12T14:17:10.101Z,100247.84
2023-05-12T14:19:40.000Z,100254.66
2023-05-12T14:22:22.323Z,100251.06
2023-05-12T14:24:56.303Z,100256.25
2023-05-12T14:27:26.379Z,100247.59
2023-05-12T14:29:56.357Z,100252.22
2023-05-12T14:32:26.408Z,100254.59
2023-05-12T14:34:56.360Z,100253.13
2023-05-12T14:37:28.840Z,100258.63
2023-05-12T14:39:58.860Z,100261.66
2023-05-12T14:42:30.323Z,100260.03
2023-05-12T14:45:00.285Z,100264.44
2023-05-12T14:47:30.335Z,100261.59
2023-05-12T14:50:00.290Z,100249.59
2023-05-12T14:52:38.419Z,100251.78
2023-05-12T14:55:12.212Z,100257.53
2023-05-12T14:57:43.105Z,100265.06
2023-05-12T15:00:16.182Z,100250.75
2023-05-12T15:02:47.859Z,100256.75
2023-05-12T15:05:18.246Z,100261.59
2023-05-12T15:07:50.862Z,100259.16
2023-05-12T15:10:20.998Z,100265.28
2023-05-12T15:12:51.064Z,100265.09
2023-05-12T15:15:21.332Z,100264.44
2023-05-12T15:17:51.655Z,100263.88
2023-05-12T15:20:21.914Z,100260.00
2023-05-12T15:22:55.162Z,100266.81
2023-05-12T15:25:25.180Z,100267.41
2023-05-12T15:27:55.169Z,100270.59
2023-05-12T15:30:25.306Z,100270.47
2023-05-12T15:32:55.350Z,100273.78
2023-05-12T15:35:27.209Z,100269.91
2023-05-12T15:37:59.717Z,100275.63
2023-05-12T15:40:30.966Z,100272.31
2023-05-12T15:43:01.366Z,100272.09
2023-05-12T15:45:31.565Z,100267.53
2023-05-12T15:48:01.632Z,100268.16
2023-05-12T15:50:31.622Z,100268.09
2023-05-12T15:53:04.121Z,100268.97
2023-05-12T15:55:34.115Z,100271.22
2023-05-12T15:58:05.538Z,100276.09
2023-05-12T16:00:35.635Z,100273.44
2023-05-12T16:03:05.787Z,100276.75
2023-05-12T16:05:38.122Z,100278.88
2023-05-12T16:08:10.617Z,100275.63
2023-05-12T16:10:41.144Z,100277.69
2023-05-12T16:13:11.154Z,100265.75
2023-05-12T16:15:41.119Z,100269.56
2023-05-12T16:18:11.711Z,100267.13
2023-05-12T16:20:41.984Z,100262.34
2023-05-12T16:23:14.497Z,100262.25
2023-05-12T16:25:44.779Z,100262.44
2023-05-12T16:28:14.816Z,100259.13
2023-05-12T16:30:45.267Z,100266.59
2023-05-12T16:33:15.939Z,100271.59
2023-05-12T16:35:45.890Z,100272.34
2023-05-12T16:38:18.427Z,100264.41
2023-05-12T16:40:48.486Z,100270.06
2023-05-12T16:43:18.396Z,100257.53
2023-05-12T16:45:48.469Z,100263.28
2023-05-12T16:48:19.207Z,100261.25
2023-05-12T16:50:49.119Z,100261.50
2023-05-12T16:53:21.914Z,100258.66
2023-05-12T16:55:51.873Z,100266.28
2023-05-12T16:58:21.778Z,100267.78
2023-05-12T17:00:51.941Z,100269.81
2023-05-12T17:03:22.971Z,100271.28
2023-05-12T17:05:53.145Z,100267.78
2023-05-12T17:08:25.941Z,100276.41
2023-05-12T17:10:56.028Z,100278.53
2023-05-12T17:13:26.086Z,100285.78
2023-05-12T17:15:56.602Z,100282.59
2023-05-12T17:18:26.972Z,100283.41
2023-05-12T17:20:56.940Z,100285.28
2023-05-12T17:23:29.622Z,100285.06
2023-05-12T17:25:59.665Z,100283.44
2023-05-12T17:28:29.876Z,100296.13
2023-05-12T17:31:01.512Z,100296.47
2023-05-12T17:33:31.682Z,100294.22
2023-05-12T17:36:12.165Z,100298.09
2023-05-12T17:38:45.750Z,100302.78
2023-05-12T17:41:16.378Z,100303.34
2023-05-12T17:43:46.402Z,100303.44
2023-05-12T17:46:16.871Z,100306.75
2023-05-12T17:48:46.872Z,100305.78
2023-05-12T17:51:17.086Z,100308.28
2023-05-12T17:53:49.604Z,100309.41
2023-05-12T17:56:19.605Z,100309.84
2023-05-12T17:58:49.856Z,100313.00
2023-05-12T18:01:19.943Z,100315.31
2023-05-12T18:03:50.085Z,100310.91
2023-05-12T18:06:20.335Z,100313.81
2023-05-12T18:08:53.337Z,100315.69
2023-05-12T18:11:23.386Z,100320.03
2023-05-12T18:13:53.936Z,100317.50
2023-05-12T18:16:29.195Z,100324.81
2023-05-12T18:18:59.595Z,100328.53
2023-05-12T18:21:29.674Z,100327.84
2023-05-12T18:24:02.268Z,100331.66
2023-05-12T18:26:32.870Z,100330.16
2023-05-12T18:29:02.913Z,100327.63
2023-05-12T18:31:32.891Z,100330.06
2023-05-12T18:34:02.956Z,100338.84
2023-05-12T18:36:32.956Z,100328.16
2023-05-12T18:39:06.778Z,100333.56
2023-05-12T18:41:36.772Z,100337.88
2023-05-12T18:44:08.904Z,100332.25
2023-05-12T18:46:39.175Z,100341.81
2023-05-12T18:49:10.311Z,100339.47
2023-05-12T18:51:49.818Z,100340.75
2023-05-12T18:54:29.041Z,100340.72
2023-05-12T18:56:59.268Z,100354.91
2023-05-12T18:59:29.407Z,100354.50
2023-05-12T19:01:59.618Z,100365.16
2023-05-12T19:04:29.869Z,100358.41
2023-05-12T19:07:00.002Z,100367.59
2023-05-12T19:09:32.769Z,100361.59
2023-05-12T19:12:03.825Z,100374.59
2023-05-12T19:14:34.895Z,100367.88
2023-05-12T19:17:04.944Z,100370.59
2023-05-12T19:19:35.100Z,100380.81
2023-05-12T19:22:05.664Z,100385.47
2023-05-12T19:24:38.522Z,100383.88
2023-05-12T19:27:11.133Z,100387.06
2023-05-12T19:29:42.350Z,100392.06
2023-05-12T19:32:13.486Z,100388.97
2023-05-12T19:34:43.661Z,100396.53
2023-05-12T19:37:13.832Z,100404.59
2023-05-12T19:39:46.395Z,100395.81
2023-05-12T19:42:16.449Z,100403.56
2023-05-12T19:44:46.558Z,100401.03
2023-05-12T19:47:16.708Z,100395.25
2023-05-12T19:49:46.702Z,100398.13
2023-05-12T19:52:16.850Z,100406.28
2023-05-12T19:54:49.703Z,100407.00
2023-05-12T19:57:20.046Z,100411.00
2023-05-12T19:59:50.137Z,100421.88
2023-05-12T20:02:20.940Z,100420.72
2023-05-12T20:04:50.975Z,100428.34
2023-05-12T20:07:21.029Z,100424.31
2023-05-12T20:09:53.656Z,100431.00
2023-05-12T20:12:23.722Z,100428.09
2023-05-12T20:14:53.626Z,100429.38
2023-05-12T20:17:23.655Z,100432.56
2023-05-12T20:19:53.803Z,100436.44
2023-05-12T20:22:24.270Z,100439.94
2023-05-12T20:24:59.644Z,100448.03
2023-05-12T20:27:29.696Z,100448.66
2023-05-12T20:29:59.776Z,100448.22
2023-05-12T20:32:29.817Z,100451.69
2023-05-12T20:34:59.910Z,100449.16
2023-05-12T20:37:29.950Z,100447.59
2023-05-12T20:40:02.688Z,100443.84
2023-05-12T20:42:32.672Z,100449.94
2023-05-12T20:45:02.648Z,100451.34
2023-05-12T20:47:33.617Z,100454.06
2023-05-12T20:50:05.735Z,100448.81
2023-05-12T20:52:35.908Z,100448.03
2023-05-12T20:55:09.883Z,100452.19
2023-05-12T20:57:40.320Z,100454.22
2023-05-12T21:00:11.965Z,100456.84
2023-05-12T21:02:42.683Z,100461.91
2023-05-12T21:05:12.735Z,100456.59
2023-05-12T21:07:42.757Z,100453.75
2023-05-12T21:10:15.497Z,100458.28
2023-05-12T21:12:45.516Z,100459.66
2023-05-12T21:15:15.769Z,100463.50
2023-05-12T21:17:45.817Z,100462.69
2023-05-12T21:20:16.077Z,100464.84
2023-05-12T21:22:46.100Z,100467.75
2023-05-12T21:25:18.752Z,100466.63
2023-05-12T21:27:48.658Z,100460.63
2023-05-12T21:30:18.881Z,100470.81
2023-05-12T21:32:49.110Z,100469.53
2023-05-12T21:35:19.218Z,100472.34
2023-05-12T21:37:49.686Z,100478.59
2023-05-12T21:40:22.552Z,100476.63
2023-05-12T21:42:52.750Z,100488.59
2023-05-12T21:45:23.031Z,100478.59
2023-05-12T21:47:53.321Z,100487.09
2023-05-12T21:50:23.683Z,100480.94
2023-05-12T21:52:53.689Z,100484.50
2023-05-12T21:55:26.559Z,100490.31
2023-05-12T21:57:56.707Z,100479.34
2023-05-12T22:00:27.025Z,100489.19
2023-05-12T22:02:57.089Z,100487.50
2023-05-12T22:05:27.331Z,100479.34
2023-05-12T22:07:57.473Z,100485.81
2023-05-12T22:10:30.611Z,100490.78
2023-05-12T22:13:00.578Z,100496.31
2023-05-12T22:15:30.857Z,100498.44
2023-05-12T22:18:00.895Z,100492.84
2023-05-12T22:20:31.016Z,100492.34
2023-05-12T22:23:01.057Z,100504.44
2023-05-12T22:25:33.705Z,100500.59
2023-05-12T22:28:04.853Z,100492.84
2023-05-12T22:30:36.588Z,100488.88
2023-05-12T22:33:06.801Z,100493.69
2023-05-12T22:35:36.990Z,100490.78
2023-05-12T22:38:07.023Z,100490.47
2023-05-12T22:40:39.553Z,100490.19
2023-05-12T22:43:09.782Z,100491.59
2023-05-12T22:45:39.771Z,100488.06
2023-05-12T22:48:09.703Z,100490.94
2023-05-12T22:50:39.657Z,100480.63
2023-05-12T22:53:09.685Z,100483.44
2023-05-12T22:55:42.263Z,100487.66
2023-05-12T22:58:12.727Z,100484.94
2023-05-12T23:00:42.686Z,100491.41
2023-05-12T23:03:12.667Z,100494.78
2023-05-12T23:05:42.650Z,100492.44
2023-05-12T23:08:12.608Z,100488.13
2023-05-12T23:10:45.126Z,100493.00
2023-05-12T23:13:15.025Z,100490.47
2023-05-12T23:15:44.991Z,100488.25
2023-05-12T23:18:14.909Z,100483.09
2023-05-12T23:20:44.813Z,100478.59
2023-05-12T23:23:14.798Z,100481.78
2023-05-12T23:25:47.301Z,100479.25
2023-05-12T23:28:17.249Z,100482.81
2023-05-12T23:30:47.191Z,100477.09
2023-05-12T23:33:17.394Z,100481.75
2023-05-12T23:35:47.505Z,100478.97
2023-05-12T23:38:17.483Z,100478.97
2023-05-12T23:40:50.303Z,100486.25
2023-05-12T23:43:20.251Z,100472.81
2023-05-12T23:45:50.465Z,100487.09
2023-05-12T23:48:20.462Z,100485.63
2023-05-12T23:50:50.527Z,100478.41
2023-05-12T23:53:20.535Z,100478.41
2023-05-12T23:55:53.068Z,100480.81
2023-05-12T23:58:23.027Z,100476.22
